sensor_id;sensor_type;location;lat;lon;timestamp;P1;durP1;ratioP1;P2;durP2;ratioP2
71629;SDS011;59479;51.902;8.212;2022-08-07T00:00:31;4.07;;;1.70;;
71629;SDS011;59479;51.902;8.212;2022-08-07T00:02:57;4.72;;;1.80;;
71629;SDS011;59479;51.902;8.212;2022-08-07T00:05:23;4.17;;;1.90;;
71629;SDS011;59479;51.902;8.212;2022-08-07T00:07:49;3.50;;;1.77;;
71629;SDS011;59479;51.902;8.212;2022-08-07T00:10:18;3.33;;;1.60;;
71629;SDS011;59479;51.902;8.212;2022-08-07T00:12:44;3.88;;;1.80;;
71629;SDS011;59479;51.902;8.212;2022-08-07T00:15:09;4.03;;;2.30;;
71629;SDS011;59479;51.902;8.212;2022-08-07T00:17:35;3.50;;;1.90;;
71629;SDS011;59479;51.902;8.212;2022-08-07T00:20:01;4.65;;;1.70;;
71629;SDS011;59479;51.902;8.212;2022-08-07T00:22:28;3.63;;;1.80;;
71629;SDS011;59479;51.902;8.212;2022-08-07T00:24:53;3.55;;;1.80;;
71629;SDS011;59479;51.902;8.212;2022-08-07T00:27:19;2.92;;;1.33;;
71629;SDS011;59479;51.902;8.212;2022-08-07T00:29:44;4.47;;;1.70;;
71629;SDS011;59479;51.902;8.212;2022-08-07T00:32:09;4.63;;;1.70;;
71629;SDS011;59479;51.902;8.212;2022-08-07T00:34:36;5.80;;;2.10;;
71629;SDS011;59479;51.902;8.212;2022-08-07T00:37:02;3.70;;;1.90;;
71629;SDS011;59479;51.902;8.212;2022-08-07T00:39:27;3.73;;;1.63;;
71629;SDS011;59479;51.902;8.212;2022-08-07T00:41:54;3.97;;;1.80;;
71629;SDS011;59479;51.902;8.212;2022-08-07T00:44:21;3.60;;;1.40;;
71629;SDS011;59479;51.902;8.212;2022-08-07T00:46:47;4.05;;;1.95;;
71629;SDS011;59479;51.902;8.212;2022-08-07T00:49:13;3.30;;;1.65;;
71629;SDS011;59479;51.902;8.212;2022-08-07T00:51:39;4.43;;;1.87;;
71629;SDS011;59479;51.902;8.212;2022-08-07T00:54:04;4.67;;;1.60;;
71629;SDS011;59479;51.902;8.212;2022-08-07T00:56:29;3.70;;;1.90;;
71629;SDS011;59479;51.902;8.212;2022-08-07T00:58:55;3.33;;;1.60;;
71629;SDS011;59479;51.902;8.212;2022-08-07T01:01:21;4.23;;;1.90;;
71629;SDS011;59479;51.902;8.212;2022-08-07T01:03:47;3.53;;;1.70;;
71629;SDS011;59479;51.902;8.212;2022-08-07T01:06:15;5.47;;;2.00;;
71629;SDS011;59479;51.902;8.212;2022-08-07T01:08:41;3.00;;;1.67;;
71629;SDS011;59479;51.902;8.212;2022-08-07T01:11:07;6.15;;;2.13;;
71629;SDS011;59479;51.902;8.212;2022-08-07T01:13:32;3.50;;;1.70;;
71629;SDS011;59479;51.902;8.212;2022-08-07T01:15:59;4.50;;;1.60;;
71629;SDS011;59479;51.902;8.212;2022-08-07T01:18:25;3.90;;;1.70;;
71629;SDS011;59479;51.902;8.212;2022-08-07T01:21:15;4.93;;;2.08;;
71629;SDS011;59479;51.902;8.212;2022-08-07T01:23:44;3.90;;;1.70;;
71629;SDS011;59479;51.902;8.212;2022-08-07T01:26:11;4.10;;;1.83;;
71629;SDS011;59479;51.902;8.212;2022-08-07T01:28:40;4.63;;;2.15;;
71629;SDS011;59479;51.902;8.212;2022-08-07T01:31:09;3.85;;;1.80;;
71629;SDS011;59479;51.902;8.212;2022-08-07T01:33:35;4.33;;;1.80;;
71629;SDS011;59479;51.902;8.212;2022-08-07T01:36:01;3.88;;;1.58;;
71629;SDS011;59479;51.902;8.212;2022-08-07T01:38:27;3.47;;;1.80;;
71629;SDS011;59479;51.902;8.212;2022-08-07T01:40:54;4.18;;;1.50;;
71629;SDS011;59479;51.902;8.212;2022-08-07T01:43:22;4.35;;;1.90;;
71629;SDS011;59479;51.902;8.212;2022-08-07T01:45:48;4.87;;;1.70;;
71629;SDS011;59479;51.902;8.212;2022-08-07T01:48:14;4.07;;;1.70;;
71629;SDS011;59479;51.902;8.212;2022-08-07T01:50:40;6.90;;;1.90;;
71629;SDS011;59479;51.902;8.212;2022-08-07T01:53:06;3.72;;;1.80;;
71629;SDS011;59479;51.902;8.212;2022-08-07T01:55:38;3.40;;;1.73;;
71629;SDS011;59479;51.902;8.212;2022-08-07T01:58:08;3.40;;;1.73;;
71629;SDS011;59479;51.902;8.212;2022-08-07T02:00:36;3.20;;;1.45;;
71629;SDS011;59479;51.902;8.212;2022-08-07T02:03:08;4.10;;;1.90;;
71629;SDS011;59479;51.902;8.212;2022-08-07T02:08:17;4.40;;;1.80;;
71629;SDS011;59479;51.902;8.212;2022-08-07T02:10:47;7.00;;;2.15;;
71629;SDS011;59479;51.902;8.212;2022-08-07T02:13:17;3.83;;;1.98;;
71629;SDS011;59479;51.902;8.212;2022-08-07T02:15:45;3.80;;;1.80;;
71629;SDS011;59479;51.902;8.212;2022-08-07T02:18:12;4.38;;;1.83;;
71629;SDS011;59479;51.902;8.212;2022-08-07T02:20:40;4.30;;;2.00;;
71629;SDS011;59479;51.902;8.212;2022-08-07T02:23:07;4.28;;;1.90;;
71629;SDS011;59479;51.902;8.212;2022-08-07T02:25:33;5.17;;;2.30;;
71629;SDS011;59479;51.902;8.212;2022-08-07T02:28:01;4.75;;;2.50;;
71629;SDS011;59479;51.902;8.212;2022-08-07T02:30:27;4.35;;;2.03;;
71629;SDS011;59479;51.902;8.212;2022-08-07T02:32:54;4.18;;;1.88;;
71629;SDS011;59479;51.902;8.212;2022-08-07T02:35:21;3.67;;;2.00;;
71629;SDS011;59479;51.902;8.212;2022-08-07T02:37:48;4.47;;;1.90;;
71629;SDS011;59479;51.902;8.212;2022-08-07T02:40:16;3.35;;;1.70;;
71629;SDS011;59479;51.902;8.212;2022-08-07T02:42:41;4.03;;;1.97;;
71629;SDS011;59479;51.902;8.212;2022-08-07T02:45:09;4.00;;;2.10;;
71629;SDS011;59479;51.902;8.212;2022-08-07T02:47:37;5.15;;;1.98;;
71629;SDS011;59479;51.902;8.212;2022-08-07T02:50:03;5.07;;;2.00;;
71629;SDS011;59479;51.902;8.212;2022-08-07T02:52:34;3.80;;;1.90;;
71629;SDS011;59479;51.902;8.212;2022-08-07T02:55:05;4.72;;;1.90;;
71629;SDS011;59479;51.902;8.212;2022-08-07T02:57:34;4.72;;;2.00;;
71629;SDS011;59479;51.902;8.212;2022-08-07T03:00:00;3.97;;;2.33;;
71629;SDS011;59479;51.902;8.212;2022-08-07T03:02:28;3.72;;;2.17;;
71629;SDS011;59479;51.902;8.212;2022-08-07T03:04:53;4.25;;;2.20;;
71629;SDS011;59479;51.902;8.212;2022-08-07T03:07:20;3.77;;;2.10;;
71629;SDS011;59479;51.902;8.212;2022-08-07T03:09:46;4.20;;;2.40;;
71629;SDS011;59479;51.902;8.212;2022-08-07T03:12:12;4.90;;;2.35;;
71629;SDS011;59479;51.902;8.212;2022-08-07T03:14:39;4.40;;;2.20;;
71629;SDS011;59479;51.902;8.212;2022-08-07T03:17:05;3.72;;;2.10;;
71629;SDS011;59479;51.902;8.212;2022-08-07T03:19:32;4.75;;;2.13;;
71629;SDS011;59479;51.902;8.212;2022-08-07T03:21:59;6.70;;;2.70;;
71629;SDS011;59479;51.902;8.212;2022-08-07T03:24:25;4.70;;;2.23;;
71629;SDS011;59479;51.902;8.212;2022-08-07T03:26:51;5.30;;;2.67;;
71629;SDS011;59479;51.902;8.212;2022-08-07T03:29:17;5.97;;;2.17;;
71629;SDS011;59479;51.902;8.212;2022-08-07T03:31:45;4.55;;;2.30;;
71629;SDS011;59479;51.902;8.212;2022-08-07T03:34:12;5.20;;;2.50;;
71629;SDS011;59479;51.902;8.212;2022-08-07T03:36:40;4.65;;;2.58;;
71629;SDS011;59479;51.902;8.212;2022-08-07T03:39:07;4.28;;;2.45;;
71629;SDS011;59479;51.902;8.212;2022-08-07T03:41:37;5.82;;;2.28;;
71629;SDS011;59479;51.902;8.212;2022-08-07T03:44:04;6.32;;;2.75;;
71629;SDS011;59479;51.902;8.212;2022-08-07T03:46:29;7.33;;;2.80;;
71629;SDS011;59479;51.902;8.212;2022-08-07T03:48:56;4.75;;;2.95;;
71629;SDS011;59479;51.902;8.212;2022-08-07T03:51:22;4.47;;;2.50;;
71629;SDS011;59479;51.902;8.212;2022-08-07T03:53:48;4.25;;;2.83;;
71629;SDS011;59479;51.902;8.212;2022-08-07T03:56:15;6.27;;;2.30;;
71629;SDS011;59479;51.902;8.212;2022-08-07T03:58:44;5.50;;;2.50;;
71629;SDS011;59479;51.902;8.212;2022-08-07T04:01:10;4.60;;;2.65;;
71629;SDS011;59479;51.902;8.212;2022-08-07T04:03:37;4.50;;;2.53;;
71629;SDS011;59479;51.902;8.212;2022-08-07T04:06:06;4.27;;;2.20;;
71629;SDS011;59479;51.902;8.212;2022-08-07T04:08:32;4.50;;;2.38;;
71629;SDS011;59479;51.902;8.212;2022-08-07T04:10:58;4.25;;;2.60;;
71629;SDS011;59479;51.902;8.212;2022-08-07T04:13:23;4.57;;;2.50;;
71629;SDS011;59479;51.902;8.212;2022-08-07T04:15:49;4.27;;;2.50;;
71629;SDS011;59479;51.902;8.212;2022-08-07T04:18:14;4.55;;;2.60;;
71629;SDS011;59479;51.902;8.212;2022-08-07T04:20:41;4.20;;;2.10;;
71629;SDS011;59479;51.902;8.212;2022-08-07T04:23:07;6.07;;;2.30;;
71629;SDS011;59479;51.902;8.212;2022-08-07T04:25:34;5.03;;;2.85;;
71629;SDS011;59479;51.902;8.212;2022-08-07T04:28:03;5.80;;;2.13;;
71629;SDS011;59479;51.902;8.212;2022-08-07T04:30:30;4.38;;;2.47;;
71629;SDS011;59479;51.902;8.212;2022-08-07T04:32:57;4.43;;;2.42;;
71629;SDS011;59479;51.902;8.212;2022-08-07T04:35:23;3.70;;;2.25;;
71629;SDS011;59479;51.902;8.212;2022-08-07T04:37:48;4.30;;;2.43;;
71629;SDS011;59479;51.902;8.212;2022-08-07T04:40:14;4.18;;;2.40;;
71629;SDS011;59479;51.902;8.212;2022-08-07T04:42:39;3.90;;;2.22;;
71629;SDS011;59479;51.902;8.212;2022-08-07T04:45:05;6.00;;;2.30;;
71629;SDS011;59479;51.902;8.212;2022-08-07T04:47:37;3.97;;;2.53;;
71629;SDS011;59479;51.902;8.212;2022-08-07T04:50:10;5.70;;;2.40;;
71629;SDS011;59479;51.902;8.212;2022-08-07T04:52:40;3.80;;;2.40;;
71629;SDS011;59479;51.902;8.212;2022-08-07T04:55:27;4.50;;;2.70;;
71629;SDS011;59479;51.902;8.212;2022-08-07T05:00:58;3.58;;;2.33;;
71629;SDS011;59479;51.902;8.212;2022-08-07T05:06:43;4.43;;;2.80;;
71629;SDS011;59479;51.902;8.212;2022-08-07T05:09:15;3.83;;;2.70;;
71629;SDS011;59479;51.902;8.212;2022-08-07T05:11:51;5.00;;;2.90;;
71629;SDS011;59479;51.902;8.212;2022-08-07T05:14:37;6.07;;;2.42;;
71629;SDS011;59479;51.902;8.212;2022-08-07T05:17:05;5.90;;;2.63;;
71629;SDS011;59479;51.902;8.212;2022-08-07T05:19:35;6.05;;;2.85;;
71629;SDS011;59479;51.902;8.212;2022-08-07T05:22:04;4.43;;;2.78;;
71629;SDS011;59479;51.902;8.212;2022-08-07T05:24:34;4.65;;;2.90;;
71629;SDS011;59479;51.902;8.212;2022-08-07T05:27:01;6.75;;;3.33;;
71629;SDS011;59479;51.902;8.212;2022-08-07T05:29:29;7.83;;;3.17;;
71629;SDS011;59479;51.902;8.212;2022-08-07T05:31:56;6.22;;;3.15;;
71629;SDS011;59479;51.902;8.212;2022-08-07T05:34:23;7.68;;;3.20;;
71629;SDS011;59479;51.902;8.212;2022-08-07T05:36:50;4.88;;;3.30;;
71629;SDS011;59479;51.902;8.212;2022-08-07T05:39:18;6.10;;;3.00;;
71629;SDS011;59479;51.902;8.212;2022-08-07T05:41:44;4.67;;;3.03;;
71629;SDS011;59479;51.902;8.212;2022-08-07T05:44:12;6.05;;;3.15;;
71629;SDS011;59479;51.902;8.212;2022-08-07T05:46:41;6.05;;;3.63;;
71629;SDS011;59479;51.902;8.212;2022-08-07T05:49:07;6.43;;;3.33;;
71629;SDS011;59479;51.902;8.212;2022-08-07T05:51:33;4.78;;;3.25;;
71629;SDS011;59479;51.902;8.212;2022-08-07T05:53:59;5.67;;;3.40;;
71629;SDS011;59479;51.902;8.212;2022-08-07T05:56:26;6.45;;;3.67;;
71629;SDS011;59479;51.902;8.212;2022-08-07T05:58:52;6.45;;;3.33;;
71629;SDS011;59479;51.902;8.212;2022-08-07T06:01:18;5.87;;;3.80;;
71629;SDS011;59479;51.902;8.212;2022-08-07T06:03:47;6.63;;;4.30;;
71629;SDS011;59479;51.902;8.212;2022-08-07T06:06:15;5.82;;;3.67;;
71629;SDS011;59479;51.902;8.212;2022-08-07T06:08:41;6.93;;;3.73;;
71629;SDS011;59479;51.902;8.212;2022-08-07T06:11:07;6.18;;;3.15;;
71629;SDS011;59479;51.902;8.212;2022-08-07T06:13:36;5.25;;;3.35;;
71629;SDS011;59479;51.902;8.212;2022-08-07T06:16:02;6.38;;;3.47;;
71629;SDS011;59479;51.902;8.212;2022-08-07T06:18:28;5.10;;;3.20;;
71629;SDS011;59479;51.902;8.212;2022-08-07T06:20:55;7.90;;;3.60;;
71629;SDS011;59479;51.902;8.212;2022-08-07T06:23:23;5.72;;;3.75;;
71629;SDS011;59479;51.902;8.212;2022-08-07T06:25:48;5.60;;;3.20;;
71629;SDS011;59479;51.902;8.212;2022-08-07T06:28:15;4.68;;;3.50;;
71629;SDS011;59479;51.902;8.212;2022-08-07T06:30:40;6.35;;;3.85;;
71629;SDS011;59479;51.902;8.212;2022-08-07T06:33:07;6.17;;;3.50;;
71629;SDS011;59479;51.902;8.212;2022-08-07T06:35:33;4.82;;;3.25;;
71629;SDS011;59479;51.902;8.212;2022-08-07T06:37:59;5.78;;;3.50;;
71629;SDS011;59479;51.902;8.212;2022-08-07T06:40:26;4.50;;;2.80;;
71629;SDS011;59479;51.902;8.212;2022-08-07T06:42:54;4.63;;;3.05;;
71629;SDS011;59479;51.902;8.212;2022-08-07T06:45:21;5.00;;;3.00;;
71629;SDS011;59479;51.902;8.212;2022-08-07T06:47:47;5.00;;;3.15;;
71629;SDS011;59479;51.902;8.212;2022-08-07T06:50:13;6.40;;;3.03;;
71629;SDS011;59479;51.902;8.212;2022-08-07T06:52:40;6.47;;;2.87;;
71629;SDS011;59479;51.902;8.212;2022-08-07T06:55:13;4.20;;;2.70;;
71629;SDS011;59479;51.902;8.212;2022-08-07T06:57:41;6.35;;;2.85;;
71629;SDS011;59479;51.902;8.212;2022-08-07T07:00:09;4.00;;;2.50;;
71629;SDS011;59479;51.902;8.212;2022-08-07T07:02:35;5.68;;;2.90;;
71629;SDS011;59479;51.902;8.212;2022-08-07T07:05:02;6.03;;;2.60;;
71629;SDS011;59479;51.902;8.212;2022-08-07T07:07:27;5.35;;;3.17;;
71629;SDS011;59479;51.902;8.212;2022-08-07T07:09:53;8.23;;;3.63;;
71629;SDS011;59479;51.902;8.212;2022-08-07T07:12:22;7.30;;;3.07;;
71629;SDS011;59479;51.902;8.212;2022-08-07T07:14:49;7.55;;;3.95;;
71629;SDS011;59479;51.902;8.212;2022-08-07T07:17:25;7.75;;;3.22;;
71629;SDS011;59479;51.902;8.212;2022-08-07T07:19:52;5.57;;;3.40;;
71629;SDS011;59479;51.902;8.212;2022-08-07T07:22:20;5.63;;;2.95;;
71629;SDS011;59479;51.902;8.212;2022-08-07T07:24:46;6.95;;;3.20;;
71629;SDS011;59479;51.902;8.212;2022-08-07T07:27:13;4.60;;;2.72;;
71629;SDS011;59479;51.902;8.212;2022-08-07T07:29:42;5.63;;;3.08;;
71629;SDS011;59479;51.902;8.212;2022-08-07T07:32:12;6.88;;;3.42;;
71629;SDS011;59479;51.902;8.212;2022-08-07T07:34:40;7.95;;;4.07;;
71629;SDS011;59479;51.902;8.212;2022-08-07T07:37:09;6.97;;;3.35;;
71629;SDS011;59479;51.902;8.212;2022-08-07T07:39:36;5.43;;;2.80;;
71629;SDS011;59479;51.902;8.212;2022-08-07T07:42:03;5.68;;;3.22;;
71629;SDS011;59479;51.902;8.212;2022-08-07T07:44:30;5.45;;;2.78;;
71629;SDS011;59479;51.902;8.212;2022-08-07T07:46:56;5.78;;;2.58;;
71629;SDS011;59479;51.902;8.212;2022-08-07T07:49:24;4.00;;;2.30;;
71629;SDS011;59479;51.902;8.212;2022-08-07T07:51:54;4.75;;;2.20;;
71629;SDS011;59479;51.902;8.212;2022-08-07T07:54:21;5.07;;;2.75;;
71629;SDS011;59479;51.902;8.212;2022-08-07T07:56:48;6.05;;;2.58;;
71629;SDS011;59479;51.902;8.212;2022-08-07T07:59:16;4.47;;;2.50;;
71629;SDS011;59479;51.902;8.212;2022-08-07T08:01:45;6.05;;;2.72;;
71629;SDS011;59479;51.902;8.212;2022-08-07T08:04:13;8.20;;;2.63;;
71629;SDS011;59479;51.902;8.212;2022-08-07T08:06:41;4.97;;;2.20;;
71629;SDS011;59479;51.902;8.212;2022-08-07T08:09:08;5.13;;;2.33;;
71629;SDS011;59479;51.902;8.212;2022-08-07T08:11:34;3.88;;;2.08;;
71629;SDS011;59479;51.902;8.212;2022-08-07T08:14:00;3.92;;;2.00;;
71629;SDS011;59479;51.902;8.212;2022-08-07T08:16:44;4.20;;;2.17;;
71629;SDS011;59479;51.902;8.212;2022-08-07T08:19:11;5.05;;;1.55;;
71629;SDS011;59479;51.902;8.212;2022-08-07T08:21:40;5.85;;;1.67;;
71629;SDS011;59479;51.902;8.212;2022-08-07T08:24:28;5.75;;;1.92;;
71629;SDS011;59479;51.902;8.212;2022-08-07T08:27:14;9.27;;;1.90;;
71629;SDS011;59479;51.902;8.212;2022-08-07T08:32:16;3.95;;;1.60;;
71629;SDS011;59479;51.902;8.212;2022-08-07T08:34:44;3.70;;;1.50;;
71629;SDS011;59479;51.902;8.212;2022-08-07T08:37:11;4.75;;;1.60;;
71629;SDS011;59479;51.902;8.212;2022-08-07T08:39:38;4.03;;;1.73;;
71629;SDS011;59479;51.902;8.212;2022-08-07T08:42:10;4.25;;;1.70;;
71629;SDS011;59479;51.902;8.212;2022-08-07T08:44:52;3.72;;;1.65;;
71629;SDS011;59479;51.902;8.212;2022-08-07T08:50:10;3.30;;;1.33;;
71629;SDS011;59479;51.902;8.212;2022-08-07T08:53:00;4.47;;;1.50;;
71629;SDS011;59479;51.902;8.212;2022-08-07T08:55:39;4.22;;;1.55;;
71629;SDS011;59479;51.902;8.212;2022-08-07T09:00:53;3.85;;;1.40;;
71629;SDS011;59479;51.902;8.212;2022-08-07T09:06:23;4.40;;;1.40;;
71629;SDS011;59479;51.902;8.212;2022-08-07T09:14:11;3.15;;;1.20;;
71629;SDS011;59479;51.902;8.212;2022-08-07T09:16:53;4.15;;;1.27;;
71629;SDS011;59479;51.902;8.212;2022-08-07T09:27:29;3.67;;;1.38;;
71629;SDS011;59479;51.902;8.212;2022-08-07T09:40:41;2.80;;;1.10;;
71629;SDS011;59479;51.902;8.212;2022-08-07T09:43:22;3.60;;;1.10;;
71629;SDS011;59479;51.902;8.212;2022-08-07T09:46:03;3.20;;;1.15;;
71629;SDS011;59479;51.902;8.212;2022-08-07T09:54:22;4.55;;;1.25;;
71629;SDS011;59479;51.902;8.212;2022-08-07T09:57:05;3.50;;;1.45;;
71629;SDS011;59479;51.902;8.212;2022-08-07T10:05:38;2.80;;;1.23;;
71629;SDS011;59479;51.902;8.212;2022-08-07T10:27:50;3.80;;;1.20;;
71629;SDS011;59479;51.902;8.212;2022-08-07T10:30:44;4.22;;;1.33;;
71629;SDS011;59479;51.902;8.212;2022-08-07T10:33:20;3.10;;;1.40;;
71629;SDS011;59479;51.902;8.212;2022-08-07T10:38:42;3.30;;;1.30;;
71629;SDS011;59479;51.902;8.212;2022-08-07T10:41:32;2.75;;;1.25;;
71629;SDS011;59479;51.902;8.212;2022-08-07T10:59:25;3.78;;;1.27;;
71629;SDS011;59479;51.902;8.212;2022-08-07T11:02:07;3.22;;;1.17;;
71629;SDS011;59479;51.902;8.212;2022-08-07T11:04:57;3.67;;;1.00;;
71629;SDS011;59479;51.902;8.212;2022-08-07T11:07:55;3.42;;;1.08;;
71629;SDS011;59479;51.902;8.212;2022-08-07T11:10:36;3.20;;;1.30;;
71629;SDS011;59479;51.902;8.212;2022-08-07T11:13:52;3.17;;;1.08;;
71629;SDS011;59479;51.902;8.212;2022-08-07T11:15:54;4.72;;;1.40;;
71629;SDS011;59479;51.902;8.212;2022-08-07T11:21:06;3.17;;;1.20;;
71629;SDS011;59479;51.902;8.212;2022-08-07T11:23:44;3.78;;;1.00;;
71629;SDS011;59479;51.902;8.212;2022-08-07T11:29:35;3.20;;;1.20;;
71629;SDS011;59479;51.902;8.212;2022-08-07T11:32:08;2.83;;;1.13;;
71629;SDS011;59479;51.902;8.212;2022-08-07T11:34:50;2.80;;;1.20;;
71629;SDS011;59479;51.902;8.212;2022-08-07T11:40:32;3.00;;;1.00;;
71629;SDS011;59479;51.902;8.212;2022-08-07T11:43:25;3.17;;;1.20;;
71629;SDS011;59479;51.902;8.212;2022-08-07T11:49:04;3.08;;;1.00;;
71629;SDS011;59479;51.902;8.212;2022-08-07T11:54:32;3.50;;;1.58;;
71629;SDS011;59479;51.902;8.212;2022-08-07T12:05:06;2.70;;;1.02;;
71629;SDS011;59479;51.902;8.212;2022-08-07T12:07:40;3.38;;;1.15;;
71629;SDS011;59479;51.902;8.212;2022-08-07T12:10:21;4.47;;;1.10;;
71629;SDS011;59479;51.902;8.212;2022-08-07T12:12:56;2.80;;;1.10;;
71629;SDS011;59479;51.902;8.212;2022-08-07T12:15:29;4.68;;;1.27;;
71629;SDS011;59479;51.902;8.212;2022-08-07T12:26:43;3.35;;;1.20;;
71629;SDS011;59479;51.902;8.212;2022-08-07T12:32:19;4.13;;;1.83;;
71629;SDS011;59479;51.902;8.212;2022-08-07T12:34:52;3.20;;;1.42;;
71629;SDS011;59479;51.902;8.212;2022-08-07T12:37:18;4.43;;;1.58;;
71629;SDS011;59479;51.902;8.212;2022-08-07T12:39:46;4.05;;;1.38;;
71629;SDS011;59479;51.902;8.212;2022-08-07T12:42:13;3.50;;;1.30;;
71629;SDS011;59479;51.902;8.212;2022-08-07T12:44:43;2.80;;;1.05;;
71629;SDS011;59479;51.902;8.212;2022-08-07T12:53:06;4.07;;;1.48;;
71629;SDS011;59479;51.902;8.212;2022-08-07T12:55:37;3.33;;;1.20;;
71629;SDS011;59479;51.902;8.212;2022-08-07T12:58:08;2.80;;;1.30;;
71629;SDS011;59479;51.902;8.212;2022-08-07T13:00:46;3.38;;;1.20;;
71629;SDS011;59479;51.902;8.212;2022-08-07T13:17:03;4.32;;;1.40;;
71629;SDS011;59479;51.902;8.212;2022-08-07T13:19:41;3.70;;;1.30;;
71629;SDS011;59479;51.902;8.212;2022-08-07T13:22:23;3.08;;;1.23;;
71629;SDS011;59479;51.902;8.212;2022-08-07T13:25:08;3.28;;;1.33;;
71629;SDS011;59479;51.902;8.212;2022-08-07T13:30:12;2.78;;;1.10;;
71629;SDS011;59479;51.902;8.212;2022-08-07T13:41:09;3.58;;;1.42;;
71629;SDS011;59479;51.902;8.212;2022-08-07T13:43:42;3.60;;;1.42;;
71629;SDS011;59479;51.902;8.212;2022-08-07T13:46:10;3.00;;;1.30;;
71629;SDS011;59479;51.902;8.212;2022-08-07T13:48:38;3.55;;;1.33;;
71629;SDS011;59479;51.902;8.212;2022-08-07T13:51:04;3.47;;;1.48;;
71629;SDS011;59479;51.902;8.212;2022-08-07T13:53:34;2.90;;;1.40;;
71629;SDS011;59479;51.902;8.212;2022-08-07T13:56:03;3.00;;;1.45;;
71629;SDS011;59479;51.902;8.212;2022-08-07T13:58:29;3.22;;;1.27;;
71629;SDS011;59479;51.902;8.212;2022-08-07T14:01:19;4.03;;;1.42;;
71629;SDS011;59479;51.902;8.212;2022-08-07T14:03:46;6.10;;;1.35;;
71629;SDS011;59479;51.902;8.212;2022-08-07T14:06:13;3.47;;;1.37;;
71629;SDS011;59479;51.902;8.212;2022-08-07T14:08:43;3.85;;;1.65;;
71629;SDS011;59479;51.902;8.212;2022-08-07T14:11:11;4.45;;;1.40;;
71629;SDS011;59479;51.902;8.212;2022-08-07T14:13:39;3.08;;;1.05;;
71629;SDS011;59479;51.902;8.212;2022-08-07T14:16:06;4.15;;;1.35;;
71629;SDS011;59479;51.902;8.212;2022-08-07T14:18:37;2.90;;;1.07;;
71629;SDS011;59479;51.902;8.212;2022-08-07T14:21:18;3.50;;;1.10;;
71629;SDS011;59479;51.902;8.212;2022-08-07T14:23:50;3.10;;;1.15;;
71629;SDS011;59479;51.902;8.212;2022-08-07T14:26:25;3.75;;;1.17;;
71629;SDS011;59479;51.902;8.212;2022-08-07T14:28:56;3.20;;;1.30;;
71629;SDS011;59479;51.902;8.212;2022-08-07T14:31:24;3.17;;;1.20;;
71629;SDS011;59479;51.902;8.212;2022-08-07T14:33:50;4.40;;;1.10;;
71629;SDS011;59479;51.902;8.212;2022-08-07T14:36:18;3.08;;;1.00;;
71629;SDS011;59479;51.902;8.212;2022-08-07T14:38:46;3.13;;;1.40;;
71629;SDS011;59479;51.902;8.212;2022-08-07T14:41:15;3.27;;;1.20;;
71629;SDS011;59479;51.902;8.212;2022-08-07T14:43:46;2.78;;;1.15;;
71629;SDS011;59479;51.902;8.212;2022-08-07T14:46:13;3.03;;;1.30;;
71629;SDS011;59479;51.902;8.212;2022-08-07T14:48:42;2.90;;;1.30;;
71629;SDS011;59479;51.902;8.212;2022-08-07T14:51:11;3.00;;;1.50;;
71629;SDS011;59479;51.902;8.212;2022-08-07T14:53:42;2.88;;;1.20;;
71629;SDS011;59479;51.902;8.212;2022-08-07T14:56:09;4.15;;;1.08;;
71629;SDS011;59479;51.902;8.212;2022-08-07T14:58:37;2.70;;;1.10;;
71629;SDS011;59479;51.902;8.212;2022-08-07T15:01:05;3.70;;;1.60;;
71629;SDS011;59479;51.902;8.212;2022-08-07T15:03:33;3.28;;;1.10;;
71629;SDS011;59479;51.902;8.212;2022-08-07T15:06:00;3.33;;;1.20;;
71629;SDS011;59479;51.902;8.212;2022-08-07T15:08:33;3.00;;;1.05;;
71629;SDS011;59479;51.902;8.212;2022-08-07T15:11:10;2.83;;;1.10;;
71629;SDS011;59479;51.902;8.212;2022-08-07T15:13:39;4.13;;;1.27;;
71629;SDS011;59479;51.902;8.212;2022-08-07T15:16:32;3.03;;;1.20;;
71629;SDS011;59479;51.902;8.212;2022-08-07T15:19:01;3.35;;;1.00;;
71629;SDS011;59479;51.902;8.212;2022-08-07T15:21:32;3.17;;;1.13;;
71629;SDS011;59479;51.902;8.212;2022-08-07T15:24:00;3.63;;;1.42;;
71629;SDS011;59479;51.902;8.212;2022-08-07T15:29:30;3.45;;;1.15;;
71629;SDS011;59479;51.902;8.212;2022-08-07T15:32:08;3.47;;;1.15;;
71629;SDS011;59479;51.902;8.212;2022-08-07T15:34:35;3.40;;;1.27;;
71629;SDS011;59479;51.902;8.212;2022-08-07T15:37:03;3.17;;;1.40;;
71629;SDS011;59479;51.902;8.212;2022-08-07T15:39:39;3.07;;;1.30;;
71629;SDS011;59479;51.902;8.212;2022-08-07T15:42:09;4.07;;;1.30;;
71629;SDS011;59479;51.902;8.212;2022-08-07T15:45:02;3.53;;;1.50;;
71629;SDS011;59479;51.902;8.212;2022-08-07T15:47:37;2.90;;;1.30;;
71629;SDS011;59479;51.902;8.212;2022-08-07T15:50:08;4.20;;;1.60;;
71629;SDS011;59479;51.902;8.212;2022-08-07T15:52:36;3.22;;;1.42;;
71629;SDS011;59479;51.902;8.212;2022-08-07T15:55:05;3.95;;;1.60;;
71629;SDS011;59479;51.902;8.212;2022-08-07T15:57:34;3.75;;;1.48;;
71629;SDS011;59479;51.902;8.212;2022-08-07T16:00:00;3.67;;;1.30;;
71629;SDS011;59479;51.902;8.212;2022-08-07T16:02:29;3.35;;;1.25;;
71629;SDS011;59479;51.902;8.212;2022-08-07T16:05:00;3.33;;;1.48;;
71629;SDS011;59479;51.902;8.212;2022-08-07T16:07:31;3.97;;;1.30;;
71629;SDS011;59479;51.902;8.212;2022-08-07T16:10:25;3.50;;;1.50;;
71629;SDS011;59479;51.902;8.212;2022-08-07T16:12:56;3.05;;;1.40;;
71629;SDS011;59479;51.902;8.212;2022-08-07T16:15:51;5.03;;;1.60;;
71629;SDS011;59479;51.902;8.212;2022-08-07T16:21:08;4.03;;;1.52;;
71629;SDS011;59479;51.902;8.212;2022-08-07T16:29:12;3.75;;;1.55;;
71629;SDS011;59479;51.902;8.212;2022-08-07T16:34:45;3.08;;;1.38;;
71629;SDS011;59479;51.902;8.212;2022-08-07T16:56:19;3.33;;;1.58;;
71629;SDS011;59479;51.902;8.212;2022-08-07T16:59:04;3.23;;;1.57;;
71629;SDS011;59479;51.902;8.212;2022-08-07T17:01:36;3.65;;;1.15;;
71629;SDS011;59479;51.902;8.212;2022-08-07T17:06:55;3.40;;;1.23;;
71629;SDS011;59479;51.902;8.212;2022-08-07T17:12:15;4.27;;;1.50;;
71629;SDS011;59479;51.902;8.212;2022-08-07T17:14:51;3.05;;;1.20;;
71629;SDS011;59479;51.902;8.212;2022-08-07T17:17:37;3.95;;;1.42;;
71629;SDS011;59479;51.902;8.212;2022-08-07T17:20:12;3.20;;;1.35;;
71629;SDS011;59479;51.902;8.212;2022-08-07T17:22:51;3.90;;;1.60;;
71629;SDS011;59479;51.902;8.212;2022-08-07T17:25:22;3.30;;;1.40;;
71629;SDS011;59479;51.902;8.212;2022-08-07T17:28:16;4.20;;;1.48;;
71629;SDS011;59479;51.902;8.212;2022-08-07T17:30:52;3.75;;;1.67;;
71629;SDS011;59479;51.902;8.212;2022-08-07T17:33:25;4.07;;;1.90;;
71629;SDS011;59479;51.902;8.212;2022-08-07T17:43:33;3.47;;;1.90;;
71629;SDS011;59479;51.902;8.212;2022-08-07T17:48:50;4.63;;;1.52;;
71629;SDS011;59479;51.902;8.212;2022-08-07T17:51:26;4.55;;;1.85;;
71629;SDS011;59479;51.902;8.212;2022-08-07T17:56:39;3.60;;;1.58;;
71629;SDS011;59479;51.902;8.212;2022-08-07T17:59:11;3.50;;;1.88;;
71629;SDS011;59479;51.902;8.212;2022-08-07T18:02:27;4.03;;;2.13;;
71629;SDS011;59479;51.902;8.212;2022-08-07T18:09:59;4.07;;;1.80;;
71629;SDS011;59479;51.902;8.212;2022-08-07T18:15:39;4.57;;;1.90;;
71629;SDS011;59479;51.902;8.212;2022-08-07T18:18:12;4.07;;;1.58;;
71629;SDS011;59479;51.902;8.212;2022-08-07T18:20:43;6.00;;;1.87;;
71629;SDS011;59479;51.902;8.212;2022-08-07T18:23:16;4.18;;;1.88;;
71629;SDS011;59479;51.902;8.212;2022-08-07T18:25:55;4.45;;;2.20;;
71629;SDS011;59479;51.902;8.212;2022-08-07T18:28:26;4.63;;;2.33;;
71629;SDS011;59479;51.902;8.212;2022-08-07T18:33:37;4.53;;;2.40;;
71629;SDS011;59479;51.902;8.212;2022-08-07T18:36:24;5.00;;;2.90;;
71629;SDS011;59479;51.902;8.212;2022-08-07T18:39:02;5.82;;;2.50;;
71629;SDS011;59479;51.902;8.212;2022-08-07T18:41:43;4.25;;;2.45;;
71629;SDS011;59479;51.902;8.212;2022-08-07T18:47:26;5.90;;;2.63;;
71629;SDS011;59479;51.902;8.212;2022-08-07T18:52:51;4.43;;;2.30;;
71629;SDS011;59479;51.902;8.212;2022-08-07T18:55:24;4.07;;;1.95;;